createdAt,value
2022-11-08T00:00:07.738Z,92.27
2022-11-08T00:00:18.482Z,92.36
2022-11-08T00:00:30.896Z,92.27
2022-11-08T00:00:41.646Z,92.36
2022-11-08T00:00:52.438Z,92.47
2022-11-08T00:01:03.200Z,92.57
2022-11-08T00:01:13.956Z,92.68
2022-11-08T00:01:24.860Z,92.88
2022-11-08T00:01:35.665Z,92.98
2022-11-08T00:01:47.973Z,92.98
2022-11-08T00:01:59.088Z,93.08
2022-11-08T00:02:09.988Z,93.08
2022-11-08T00:02:20.946Z,93.19
2022-11-08T00:02:32.014Z,93.08
2022-11-08T00:02:43.003Z,93.08
2022-11-08T00:02:53.857Z,93.23
2022-11-08T00:03:05.672Z,93.23
2022-11-08T00:03:16.462Z,93.23
2022-11-08T00:03:27.260Z,93.23
2022-11-08T00:03:37.997Z,93.23
2022-11-08T00:03:48.757Z,93.23
2022-11-08T00:04:01.458Z,93.23
2022-11-08T00:04:12.237Z,93.13
2022-11-08T00:04:22.958Z,93.13
2022-11-08T00:04:33.701Z,93.13
2022-11-08T00:04:45.929Z,93.02
2022-11-08T00:04:56.669Z,93.02
2022-11-08T00:05:07.406Z,93.02
2022-11-08T00:05:18.173Z,93.02
2022-11-08T00:05:28.898Z,93.02
2022-11-08T00:05:41.365Z,93.02
2022-11-08T00:05:53.067Z,93.02
2022-11-08T00:06:05.518Z,93.13
2022-11-08T00:06:16.255Z,93.13
2022-11-08T00:06:27.021Z,93.13
2022-11-08T00:06:37.747Z,93.13
2022-11-08T00:06:49.508Z,93.13
2022-11-08T00:07:01.707Z,93.13
2022-11-08T00:07:12.478Z,93.02
2022-11-08T00:07:23.250Z,93.02
2022-11-08T00:07:34.937Z,93.07
2022-11-08T00:07:45.677Z,93.07
2022-11-08T00:07:56.409Z,93.07
2022-11-08T00:08:08.102Z,93.07
2022-11-08T00:08:20.266Z,93.17
2022-11-08T00:08:31.243Z,93.27
2022-11-08T00:08:43.706Z,93.48
2022-11-08T00:08:56.401Z,93.59
2022-11-08T00:09:07.169Z,93.79
2022-11-08T00:09:17.907Z,93.79
2022-11-08T00:09:29.598Z,93.79
2022-11-08T00:09:40.380Z,93.89
2022-11-08T00:09:52.610Z,93.89
2022-11-08T00:10:03.340Z,93.89
2022-11-08T00:10:15.808Z,93.99
2022-11-08T00:10:26.581Z,93.99
2022-11-08T00:10:37.338Z,93.99
2022-11-08T00:10:48.101Z,93.99
2022-11-08T00:10:59.839Z,93.99
2022-11-08T00:11:10.611Z,93.99
2022-11-08T00:11:22.752Z,93.99
2022-11-08T00:11:33.491Z,93.99
2022-11-08T00:11:45.449Z,93.99
2022-11-08T00:11:56.246Z,93.99
2022-11-08T00:12:07.950Z,94.10
2022-11-08T00:12:20.448Z,94.20
2022-11-08T00:12:32.220Z,94.20
2022-11-08T00:12:43.963Z,94.30
2022-11-08T00:12:56.373Z,94.30
2022-11-08T00:13:09.298Z,94.30
2022-11-08T00:13:21.740Z,94.30
2022-11-08T00:13:33.465Z,94.30
2022-11-08T00:13:44.231Z,94.40
2022-11-08T00:13:54.992Z,94.40
2022-11-08T00:14:05.751Z,94.40
2022-11-08T00:14:16.521Z,94.30
2022-11-08T00:14:27.280Z,94.30
2022-11-08T00:14:38.013Z,94.30
2022-11-08T00:14:48.748Z,94.34
2022-11-08T00:15:01.201Z,94.34
2022-11-08T00:15:11.934Z,94.45
2022-11-08T00:15:23.555Z,94.45
2022-11-08T00:15:34.301Z,94.45
2022-11-08T00:15:45.052Z,94.45
2022-11-08T00:15:55.819Z,94.45
2022-11-08T00:16:06.559Z,94.45
2022-11-08T00:16:18.271Z,94.45
2022-11-08T00:16:30.700Z,94.34
2022-11-08T00:16:43.151Z,94.34
2022-11-08T00:16:53.902Z,94.34
2022-11-08T00:17:04.693Z,94.34
2022-11-08T00:17:15.449Z,94.34
2022-11-08T00:17:26.195Z,94.34
2022-11-08T00:17:36.930Z,94.24
2022-11-08T00:17:49.431Z,94.24
2022-11-08T00:18:00.193Z,94.24
2022-11-08T00:18:10.971Z,94.24
2022-11-08T00:18:22.691Z,94.24
2022-11-08T00:18:33.510Z,94.34
2022-11-08T00:18:44.291Z,94.45
2022-11-08T00:18:57.533Z,94.45
2022-11-08T00:19:10.225Z,94.45
2022-11-08T00:19:22.671Z,94.45
2022-11-08T00:19:34.361Z,94.45
2022-11-08T00:19:46.100Z,94.55
2022-11-08T00:19:57.781Z,94.45
2022-11-08T00:20:08.512Z,94.45
2022-11-08T00:20:20.244Z,94.45
2022-11-08T00:20:31.955Z,94.49
2022-11-08T00:20:42.681Z,94.49
2022-11-08T00:20:55.192Z,94.49
2022-11-08T00:21:07.729Z,94.49
2022-11-08T00:21:19.433Z,94.49
2022-11-08T00:21:30.171Z,94.49
2022-11-08T00:21:40.902Z,94.49
2022-11-08T00:21:51.674Z,94.49
2022-11-08T00:22:02.435Z,94.49
2022-11-08T00:22:13.181Z,94.49
2022-11-08T00:22:24.917Z,94.49
2022-11-08T00:22:36.657Z,94.49
2022-11-08T00:22:47.437Z,94.49
2022-11-08T00:22:59.650Z,94.49
2022-11-08T00:23:11.372Z,94.49
2022-11-08T00:23:23.822Z,94.49
2022-11-08T00:23:34.572Z,94.49
2022-11-08T00:23:47.531Z,94.49
2022-11-08T00:23:59.235Z,94.49
2022-11-08T00:24:11.662Z,94.39
2022-11-08T00:24:22.430Z,94.39
2022-11-08T00:24:34.654Z,94.49
2022-11-08T00:24:45.385Z,94.49
2022-11-08T00:24:56.211Z,94.49
2022-11-08T00:25:06.957Z,94.49
2022-11-08T00:25:17.712Z,94.49
2022-11-08T00:25:29.482Z,94.49
2022-11-08T00:25:40.203Z,94.54
2022-11-08T00:25:52.405Z,94.54
2022-11-08T00:26:05.104Z,94.43
2022-11-08T00:26:15.846Z,94.43
2022-11-08T00:26:26.592Z,94.54
2022-11-08T00:26:37.353Z,94.54
2022-11-08T00:26:49.573Z,94.54
2022-11-08T00:27:02.777Z,94.54
2022-11-08T00:27:13.513Z,94.54
2022-11-08T00:27:26.750Z,94.54
2022-11-08T00:27:37.473Z,94.54
2022-11-08T00:27:48.209Z,94.54
2022-11-08T00:27:58.946Z,94.54
2022-11-08T00:28:10.684Z,94.54
2022-11-08T00:28:21.487Z,94.54
2022-11-08T00:28:32.223Z,94.54
2022-11-08T00:28:44.453Z,94.54
2022-11-08T00:28:55.223Z,94.54
2022-11-08T00:29:05.963Z,94.64
2022-11-08T00:29:16.713Z,94.64
2022-11-08T00:29:28.911Z,94.64
2022-11-08T00:29:39.705Z,94.74
2022-11-08T00:29:51.458Z,94.74
2022-11-08T00:30:02.242Z,94.84
2022-11-08T00:30:12.978Z,94.84
2022-11-08T00:30:23.745Z,94.95
2022-11-08T00:30:34.513Z,95.05
2022-11-08T00:30:45.243Z,95.15
2022-11-08T00:30:57.434Z,95.25
2022-11-08T00:31:08.203Z,95.36
2022-11-08T00:31:18.971Z,95.36
2022-11-08T00:31:30.773Z,95.46
2022-11-08T00:31:42.995Z,95.46
2022-11-08T00:31:53.783Z,95.56
2022-11-08T00:32:04.514Z,95.56
2022-11-08T00:32:15.244Z,95.67
2022-11-08T00:32:26.004Z,95.67
2022-11-08T00:32:36.745Z,95.67
2022-11-08T00:32:48.443Z,95.77
2022-11-08T00:32:59.177Z,95.77
2022-11-08T00:33:11.603Z,95.77
2022-11-08T00:33:22.369Z,95.87
2022-11-08T00:33:34.145Z,95.87
2022-11-08T00:33:44.940Z,95.87
2022-11-08T00:33:55.674Z,95.87
2022-11-08T00:34:08.625Z,95.87
2022-11-08T00:34:19.385Z,95.87
2022-11-08T00:34:31.115Z,95.97
2022-11-08T00:34:43.596Z,96.08
2022-11-08T00:34:54.334Z,96.18
2022-11-08T00:35:05.075Z,96.18
2022-11-08T00:35:15.826Z,96.28
2022-11-08T00:35:26.577Z,96.39
2022-11-08T00:35:37.385Z,96.39
2022-11-08T00:35:49.116Z,96.39
2022-11-08T00:36:01.585Z,96.48
2022-11-08T00:36:12.317Z,96.48
2022-11-08T00:36:24.037Z,96.48
2022-11-08T00:36:34.797Z,96.48
2022-11-08T00:36:47.255Z,96.59
2022-11-08T00:36:59.695Z,96.59
2022-11-08T00:37:10.476Z,96.59
2022-11-08T00:37:22.967Z,96.59
2022-11-08T00:37:33.708Z,96.59
2022-11-08T00:37:45.423Z,96.59
2022-11-08T00:37:56.168Z,96.48
2022-11-08T00:38:08.596Z,96.59
2022-11-08T00:38:20.751Z,96.59
2022-11-08T00:38:31.605Z,96.69
2022-11-08T00:38:44.025Z,96.80
2022-11-08T00:38:57.248Z,96.90
2022-11-08T00:39:07.985Z,96.90
2022-11-08T00:39:20.396Z,96.90
2022-11-08T00:39:31.145Z,96.85
2022-11-08T00:39:42.868Z,96.85
2022-11-08T00:39:57.576Z,96.95
2022-11-08T00:40:08.380Z,96.95
2022-11-08T00:40:20.087Z,96.95
2022-11-08T00:40:32.797Z,97.00
2022-11-08T00:40:43.556Z,97.06
2022-11-08T00:40:54.311Z,97.16
2022-11-08T00:41:05.035Z,97.16
2022-11-08T00:41:15.819Z,97.16
2022-11-08T00:41:28.762Z,97.16
2022-11-08T00:41:40.497Z,97.16
2022-11-08T00:41:52.219Z,97.16
2022-11-08T00:42:04.067Z,97.16
2022-11-08T00:42:14.848Z,97.27
2022-11-08T00:42:25.699Z,97.27
2022-11-08T00:42:37.906Z,97.27
2022-11-08T00:42:48.628Z,97.37
2022-11-08T00:42:59.357Z,97.37
2022-11-08T00:43:11.049Z,97.47
2022-11-08T00:43:21.785Z,97.47
2022-11-08T00:43:33.517Z,97.47
2022-11-08T00:43:46.751Z,97.47
2022-11-08T00:43:57.494Z,97.47
2022-11-08T00:44:10.448Z,97.57
2022-11-08T00:44:21.205Z,97.67
2022-11-08T00:44:32.949Z,97.67
2022-11-08T00:44:43.737Z,97.67
2022-11-08T00:44:55.428Z,97.78
2022-11-08T00:45:06.179Z,97.78
2022-11-08T00:45:16.958Z,97.78
2022-11-08T00:45:27.718Z,97.73
2022-11-08T00:45:38.453Z,97.73
2022-11-08T00:45:49.199Z,97.63
2022-11-08T00:46:00.926Z,97.63
2022-11-08T00:46:11.719Z,97.63
2022-11-08T00:46:22.458Z,97.53
2022-11-08T00:46:34.209Z,97.53
2022-11-08T00:46:46.640Z,97.53
2022-11-08T00:46:58.369Z,97.53
2022-11-08T00:47:09.109Z,97.53
2022-11-08T00:47:21.330Z,97.53
2022-11-08T00:47:32.068Z,97.42
2022-11-08T00:47:42.827Z,97.42
2022-11-08T00:47:54.532Z,97.37
2022-11-08T00:48:05.282Z,97.32
2022-11-08T00:48:16.346Z,97.37
2022-11-08T00:48:28.289Z,97.37
2022-11-08T00:48:39.046Z,97.37
2022-11-08T00:48:49.788Z,97.37
2022-11-08T00:49:00.548Z,97.27
2022-11-08T00:49:12.287Z,97.27
2022-11-08T00:49:23.047Z,97.27
2022-11-08T00:49:33.820Z,97.27
2022-11-08T00:49:44.610Z,97.27
2022-11-08T00:49:55.349Z,97.27
2022-11-08T00:50:06.089Z,97.27
2022-11-08T00:50:18.799Z,97.16
2022-11-08T00:50:29.559Z,97.16
2022-11-08T00:50:43.027Z,97.16
2022-11-08T00:50:55.441Z,97.06
2022-11-08T00:51:06.189Z,97.06
2022-11-08T00:51:17.922Z,97.06
2022-11-08T00:51:29.639Z,96.95
2022-11-08T00:51:41.371Z,96.95
2022-11-08T00:51:53.600Z,96.95
2022-11-08T00:52:04.389Z,96.95
2022-11-08T00:52:15.160Z,97.06
2022-11-08T00:52:25.918Z,97.06
2022-11-08T00:52:38.388Z,97.16
2022-11-08T00:52:49.164Z,97.16
2022-11-08T00:52:59.920Z,97.16
2022-11-08T00:53:10.656Z,97.16
2022-11-08T00:53:21.389Z,97.16
2022-11-08T00:53:33.841Z,97.16
2022-11-08T00:53:44.574Z,97.06
2022-11-08T00:53:55.312Z,97.06
2022-11-08T00:54:06.038Z,97.06
2022-11-08T00:54:17.804Z,97.06
2022-11-08T00:54:28.585Z,97.06
2022-11-08T00:54:39.387Z,97.06
2022-11-08T00:54:51.832Z,97.06
2022-11-08T00:55:03.500Z,96.95
2022-11-08T00:55:15.996Z,97.06
2022-11-08T00:55:26.771Z,97.06
2022-11-08T00:55:37.543Z,96.95
2022-11-08T00:55:48.278Z,96.95
2022-11-08T00:55:59.024Z,96.95
2022-11-08T00:56:09.745Z,97.06
2022-11-08T00:56:22.289Z,97.06
2022-11-08T00:56:33.030Z,97.06
2022-11-08T00:56:43.761Z,97.16
2022-11-08T00:56:54.534Z,97.06
2022-11-08T00:57:05.280Z,97.06
2022-11-08T00:57:16.029Z,97.06
2022-11-08T00:57:41.216Z,97.16
2022-11-08T00:57:58.391Z,97.16
2022-11-08T00:58:00.333Z,97.16
2022-11-08T00:58:12.412Z,97.16
2022-11-08T00:58:27.475Z,97.16
2022-11-08T00:58:38.561Z,97.16
2022-11-08T00:58:49.321Z,97.16
2022-11-08T00:59:01.772Z,97.06
2022-11-08T00:59:12.541Z,97.06
2022-11-08T00:59:23.290Z,97.06
2022-11-08T00:59:34.011Z,97.06
2022-11-08T00:59:45.733Z,97.10
2022-11-08T00:59:56.480Z,97.00
2022-11-08T01:00:07.281Z,97.00
2022-11-08T01:00:18.033Z,97.00
2022-11-08T01:00:28.781Z,97.00
2022-11-08T01:00:41.294Z,96.90
2022-11-08T01:00:53.083Z,96.90
2022-11-08T01:01:05.553Z,96.90
2022-11-08T01:01:17.478Z,96.90
2022-11-08T01:01:30.322Z,96.90
2022-11-08T01:01:43.772Z,96.90
2022-11-08T01:01:54.794Z,96.80
2022-11-08T01:02:05.720Z,96.80
2022-11-08T01:02:16.561Z,96.80
2022-11-08T01:02:27.323Z,96.90
2022-11-08T01:02:40.337Z,96.90
2022-11-08T01:02:51.122Z,96.90
2022-11-08T01:03:01.900Z,96.90
2022-11-08T01:03:13.642Z,96.80
2022-11-08T01:03:24.437Z,96.80
2022-11-08T01:03:35.231Z,96.69
2022-11-08T01:03:45.971Z,96.69
2022-11-08T01:03:56.712Z,96.59
2022-11-08T01:04:08.470Z,96.59
2022-11-08T01:04:19.222Z,96.59
2022-11-08T01:04:31.682Z,96.59
2022-11-08T01:04:42.432Z,96.59
2022-11-08T01:04:53.203Z,96.59
2022-11-08T01:05:03.993Z,96.59
2022-11-08T01:05:14.723Z,96.59
2022-11-08T01:05:26.471Z,96.64
2022-11-08T01:05:37.224Z,96.59
2022-11-08T01:05:48.005Z,96.64
2022-11-08T01:05:58.742Z,96.64
2022-11-08T01:06:10.933Z,96.64
2022-11-08T01:06:21.672Z,96.64
2022-11-08T01:06:32.433Z,96.64
2022-11-08T01:06:43.182Z,96.64
2022-11-08T01:06:53.933Z,96.73
2022-11-08T01:07:04.663Z,96.73
2022-11-08T01:07:15.431Z,96.73
2022-11-08T01:07:26.243Z,96.73
2022-11-08T01:07:36.995Z,96.84
2022-11-08T01:07:47.794Z,96.84
2022-11-08T01:07:58.533Z,96.94
2022-11-08T01:08:10.292Z,96.94
2022-11-08T01:08:21.464Z,96.94
2022-11-08T01:08:32.355Z,96.94
2022-11-08T01:08:44.063Z,96.94
2022-11-08T01:08:54.825Z,96.94
2022-11-08T01:09:05.583Z,96.94
2022-11-08T01:09:17.293Z,96.94
2022-11-08T01:09:28.065Z,96.94
2022-11-08T01:09:38.846Z,97.05
2022-11-08T01:09:49.575Z,97.15
2022-11-08T01:10:00.337Z,97.15
2022-11-08T01:10:11.086Z,97.15
2022-11-08T01:10:21.861Z,97.25
2022-11-08T01:10:32.596Z,97.41
2022-11-08T01:10:43.374Z,97.41
2022-11-08T01:10:54.130Z,97.41
2022-11-08T01:11:05.932Z,97.41
2022-11-08T01:11:17.665Z,97.52
2022-11-08T01:11:28.473Z,97.52
2022-11-08T01:11:40.944Z,97.62
2022-11-08T01:11:52.690Z,97.62
2022-11-08T01:12:03.483Z,97.72
2022-11-08T01:12:14.250Z,97.72
2022-11-08T01:12:26.674Z,97.72
2022-11-08T01:12:37.444Z,97.72
2022-11-08T01:12:48.193Z,97.82
2022-11-08T01:12:58.923Z,97.82
2022-11-08T01:13:10.632Z,97.82
2022-11-08T01:13:21.384Z,97.82
2022-11-08T01:13:32.158Z,97.92
2022-11-08T01:13:43.906Z,98.03
2022-11-08T01:13:54.674Z,98.03
2022-11-08T01:14:05.451Z,98.03
2022-11-08T01:14:16.268Z,98.03
2022-11-08T01:14:26.992Z,98.03
2022-11-08T01:14:37.766Z,98.03
2022-11-08T01:14:48.495Z,98.03
2022-11-08T01:14:59.330Z,98.03
2022-11-08T01:15:10.121Z,98.03
2022-11-08T01:15:21.066Z,98.13
2022-11-08T01:15:31.864Z,98.24
2022-11-08T01:15:42.749Z,98.24
2022-11-08T01:15:53.655Z,98.24
2022-11-08T01:16:04.462Z,98.24
2022-11-08T01:16:15.195Z,98.24
2022-11-08T01:16:25.955Z,98.24
2022-11-08T01:16:36.773Z,98.24
2022-11-08T01:16:47.531Z,98.24
2022-11-08T01:16:58.288Z,98.13
2022-11-08T01:17:09.994Z,98.13
2022-11-08T01:17:21.727Z,98.13
2022-11-08T01:17:32.474Z,98.13
2022-11-08T01:17:43.208Z,98.13
2022-11-08T01:17:53.988Z,98.24
2022-11-08T01:18:04.731Z,98.24
2022-11-08T01:18:16.049Z,98.33
2022-11-08T01:18:27.065Z,98.33
2022-11-08T01:18:37.815Z,98.24
2022-11-08T01:18:48.554Z,98.24
2022-11-08T01:18:59.317Z,98.24
2022-11-08T01:19:11.027Z,98.24
2022-11-08T01:19:21.767Z,98.24
2022-11-08T01:19:33.474Z,98.13
2022-11-08T01:19:44.229Z,98.13
2022-11-08T01:19:54.986Z,98.13
2022-11-08T01:20:05.715Z,98.13
2022-11-08T01:20:16.445Z,98.03
2022-11-08T01:20:27.179Z,98.03
2022-11-08T01:20:37.919Z,98.03
2022-11-08T01:20:49.651Z,98.03
2022-11-08T01:21:01.876Z,98.03
2022-11-08T01:21:13.685Z,97.92
2022-11-08T01:21:27.440Z,97.92
2022-11-08T01:21:39.752Z,97.82
2022-11-08T01:21:52.219Z,97.82
2022-11-08T01:22:03.943Z,97.82
2022-11-08T01:22:15.723Z,97.82
2022-11-08T01:22:27.458Z,97.82
2022-11-08T01:22:39.990Z,97.82
2022-11-08T01:22:53.196Z,97.82
2022-11-08T01:23:03.947Z,97.82
2022-11-08T01:23:14.711Z,97.82
2022-11-08T01:23:25.507Z,97.82
2022-11-08T01:23:36.267Z,97.92
2022-11-08T01:23:47.005Z,97.97
2022-11-08T01:23:59.438Z,97.92
2022-11-08T01:24:11.186Z,97.92
2022-11-08T01:24:22.736Z,97.92
2022-11-08T01:24:33.507Z,97.92
2022-11-08T01:24:44.279Z,97.82
2022-11-08T01:24:55.020Z,97.87
2022-11-08T01:25:05.746Z,97.87
2022-11-08T01:25:17.978Z,97.87
2022-11-08T01:25:31.691Z,98.07
2022-11-08T01:25:43.407Z,98.03
2022-11-08T01:25:54.147Z,98.13
2022-11-08T01:26:04.887Z,98.13
2022-11-08T01:26:15.646Z,98.13
2022-11-08T01:26:29.413Z,98.13
2022-11-08T01:26:41.847Z,98.13
2022-11-08T01:26:52.597Z,98.13
2022-11-08T01:27:04.300Z,98.03
2022-11-08T01:27:15.099Z,98.03
2022-11-08T01:27:25.869Z,98.03
2022-11-08T01:27:36.599Z,98.03
2022-11-08T01:27:47.327Z,98.03
2022-11-08T01:27:58.087Z,98.03
2022-11-08T01:28:09.809Z,98.03
2022-11-08T01:28:20.965Z,98.07
2022-11-08T01:28:31.968Z,98.13
2022-11-08T01:28:42.749Z,98.13
2022-11-08T01:28:53.517Z,98.03
2022-11-08T01:29:04.298Z,98.03
2022-11-08T01:29:15.027Z,98.03
2022-11-08T01:29:26.972Z,98.07
2022-11-08T01:29:37.718Z,98.03
2022-11-08T01:29:48.496Z,98.03
2022-11-08T01:29:59.248Z,98.03
2022-11-08T01:30:09.999Z,98.07
2022-11-08T01:30:20.748Z,98.07
2022-11-08T01:30:31.511Z,98.07
2022-11-08T01:30:42.267Z,98.07
2022-11-08T01:30:53.949Z,97.97
2022-11-08T01:31:05.684Z,97.97
2022-11-08T01:31:17.901Z,97.97
2022-11-08T01:31:28.673Z,97.87
2022-11-08T01:31:40.826Z,97.87
2022-11-08T01:31:51.927Z,97.87
2022-11-08T01:32:02.651Z,97.87
2022-11-08T01:32:14.439Z,97.87
2022-11-08T01:32:25.190Z,97.87
2022-11-08T01:32:35.993Z,97.87
2022-11-08T01:32:46.768Z,97.87
2022-11-08T01:32:57.549Z,97.77
2022-11-08T01:33:08.354Z,97.77
2022-11-08T01:33:20.079Z,97.87
2022-11-08T01:33:30.895Z,97.87
2022-11-08T01:33:44.603Z,97.87
2022-11-08T01:33:57.261Z,97.87
2022-11-08T01:34:07.998Z,97.87
2022-11-08T01:34:18.749Z,97.87
2022-11-08T01:34:29.493Z,97.87
2022-11-08T01:34:42.667Z,97.87
2022-11-08T01:34:53.470Z,97.87
2022-11-08T01:35:04.253Z,97.87
2022-11-08T01:35:15.010Z,97.87
2022-11-08T01:35:26.710Z,97.87
2022-11-08T01:35:37.489Z,97.87
2022-11-08T01:35:48.208Z,97.87
2022-11-08T01:35:58.991Z,97.87
2022-11-08T01:36:10.951Z,97.87
2022-11-08T01:36:21.719Z,97.87
2022-11-08T01:36:32.478Z,97.87
2022-11-08T01:36:43.260Z,97.77
2022-11-08T01:36:54.063Z,97.77
2022-11-08T01:37:04.799Z,97.87
2022-11-08T01:37:15.572Z,97.87
2022-11-08T01:37:26.321Z,97.87
2022-11-08T01:37:37.089Z,97.87
2022-11-08T01:37:47.840Z,97.77
2022-11-08T01:37:58.600Z,97.77
2022-11-08T01:38:10.312Z,97.66
2022-11-08T01:38:21.239Z,97.66
2022-11-08T01:38:32.039Z,97.66
2022-11-08T01:38:42.801Z,97.66
2022-11-08T01:38:53.571Z,97.56
2022-11-08T01:39:04.332Z,97.61
2022-11-08T01:39:15.101Z,97.61
2022-11-08T01:39:25.851Z,97.61
2022-11-08T01:39:36.581Z,97.61
2022-11-08T01:39:47.361Z,97.61
2022-11-08T01:39:58.119Z,97.61
2022-11-08T01:40:08.852Z,97.61
2022-11-08T01:40:19.691Z,97.61
2022-11-08T01:40:30.452Z,97.50
2022-11-08T01:40:41.200Z,97.50
2022-11-08T01:40:52.922Z,97.40
2022-11-08T01:41:03.670Z,97.40
2022-11-08T01:41:15.427Z,97.30
2022-11-08T01:41:26.191Z,97.30
2022-11-08T01:41:36.943Z,97.19
2022-11-08T01:41:47.699Z,97.19
2022-11-08T01:42:00.977Z,97.19
2022-11-08T01:42:13.171Z,97.19
2022-11-08T01:42:23.931Z,97.14
2022-11-08T01:42:36.403Z,97.14
2022-11-08T01:42:47.182Z,97.03
2022-11-08T01:42:57.932Z,97.03
2022-11-08T01:43:09.681Z,96.93
2022-11-08T01:43:21.472Z,96.93
2022-11-08T01:43:32.254Z,96.93
2022-11-08T01:43:43.041Z,96.83
2022-11-08T01:43:53.840Z,96.83
2022-11-08T01:44:05.579Z,96.72
2022-11-08T01:44:17.328Z,96.72
2022-11-08T01:44:28.073Z,96.72
2022-11-08T01:44:38.811Z,96.72
2022-11-08T01:44:49.550Z,96.72
2022-11-08T01:45:02.040Z,96.62
2022-11-08T01:45:12.800Z,96.62
2022-11-08T01:45:23.531Z,96.67
2022-11-08T01:45:35.255Z,96.67
2022-11-08T01:45:46.970Z,96.56
2022-11-08T01:45:59.442Z,96.56
2022-11-08T01:46:10.257Z,96.56
2022-11-08T01:46:21.971Z,96.67
2022-11-08T01:46:34.175Z,96.67
2022-11-08T01:46:44.902Z,96.67
2022-11-08T01:46:56.623Z,96.67
2022-11-08T01:47:07.422Z,96.77
2022-11-08T01:47:19.150Z,96.67
2022-11-08T01:47:30.832Z,96.67
2022-11-08T01:47:41.621Z,96.67
2022-11-08T01:47:53.336Z,96.67
2022-11-08T01:48:05.587Z,96.67
2022-11-08T01:48:16.630Z,96.77
2022-11-08T01:48:29.264Z,96.77
2022-11-08T01:48:40.003Z,96.88
2022-11-08T01:48:50.771Z,96.88
2022-11-08T01:49:01.783Z,96.88
2022-11-08T01:49:14.734Z,96.88
2022-11-08T01:49:25.502Z,96.97
2022-11-08T01:49:37.215Z,96.97
2022-11-08T01:49:47.953Z,96.97
2022-11-08T01:49:59.711Z,96.97
2022-11-08T01:50:12.203Z,96.97
2022-11-08T01:50:22.953Z,96.97
2022-11-08T01:50:33.742Z,96.97
2022-11-08T01:50:44.505Z,96.97
2022-11-08T01:50:56.215Z,97.08
2022-11-08T01:51:08.133Z,97.08
2022-11-08T01:51:20.815Z,97.18
2022-11-08T01:51:32.585Z,97.28
2022-11-08T01:51:43.341Z,97.23
2022-11-08T01:51:55.094Z,97.33
2022-11-08T01:52:05.864Z,97.33
2022-11-08T01:52:16.685Z,97.33
2022-11-08T01:52:29.165Z,97.33
2022-11-08T01:52:39.905Z,97.33
2022-11-08T01:52:51.617Z,97.33
2022-11-08T01:53:02.368Z,97.33
2022-11-08T01:53:13.124Z,97.33
2022-11-08T01:53:24.834Z,97.33
2022-11-08T01:53:37.066Z,97.33
2022-11-08T01:53:47.834Z,97.33
2022-11-08T01:53:58.645Z,97.33
2022-11-08T01:54:10.433Z,97.33
2022-11-08T01:54:21.219Z,97.33
2022-11-08T01:54:31.963Z,97.33
2022-11-08T01:54:43.736Z,97.33
2022-11-08T01:54:54.525Z,97.23
2022-11-08T01:55:06.274Z,97.23
2022-11-08T01:55:17.016Z,97.23
2022-11-08T01:55:28.754Z,97.33
2022-11-08T01:55:41.165Z,97.33
2022-11-08T01:55:51.953Z,97.33
2022-11-08T01:56:04.365Z,97.33
2022-11-08T01:56:15.190Z,97.33
2022-11-08T01:56:26.884Z,97.33
2022-11-08T01:56:37.656Z,97.33
2022-11-08T01:56:48.434Z,97.33
2022-11-08T01:56:59.205Z,97.23
2022-11-08T01:57:10.925Z,97.23
2022-11-08T01:57:21.655Z,97.23
2022-11-08T01:57:33.376Z,97.23
2022-11-08T01:57:44.104Z,97.23
2022-11-08T01:57:55.817Z,97.23
2022-11-08T01:58:06.574Z,97.23
2022-11-08T01:58:17.855Z,97.13
2022-11-08T01:58:28.765Z,97.13
2022-11-08T01:58:39.509Z,97.13
2022-11-08T01:58:50.268Z,97.17
2022-11-08T01:59:01.045Z,97.13
2022-11-08T01:59:11.826Z,97.17
2022-11-08T01:59:23.520Z,97.17
2022-11-08T01:59:34.264Z,97.17
2022-11-08T01:59:45.024Z,97.17
2022-11-08T01:59:55.815Z,97.17
2022-11-08T02:00:06.600Z,97.17
2022-11-08T02:00:18.318Z,97.17
2022-11-08T02:00:30.005Z,97.17
2022-11-08T02:00:40.776Z,97.17
2022-11-08T02:00:51.550Z,97.27
2022-11-08T02:01:02.350Z,97.38
2022-11-08T02:01:13.135Z,97.38
2022-11-08T02:01:24.936Z,97.48
2022-11-08T02:01:35.805Z,97.68
2022-11-08T02:01:46.661Z,97.64
2022-11-08T02:01:57.642Z,97.74
2022-11-08T02:02:09.479Z,97.74
2022-11-08T02:02:20.361Z,97.74
2022-11-08T02:02:31.200Z,97.85
2022-11-08T02:02:43.375Z,97.85
2022-11-08T02:02:56.095Z,97.85
2022-11-08T02:03:06.844Z,97.85
2022-11-08T02:03:19.046Z,97.95
2022-11-08T02:03:29.818Z,97.95
2022-11-08T02:03:40.554Z,97.95
2022-11-08T02:03:51.345Z,97.95
2022-11-08T02:04:03.130Z,97.95
2022-11-08T02:04:14.828Z,97.95
2022-11-08T02:04:25.574Z,97.95
2022-11-08T02:04:36.407Z,97.95
2022-11-08T02:04:47.185Z,97.95
2022-11-08T02:04:59.075Z,97.95
2022-11-08T02:05:11.545Z,97.89
2022-11-08T02:05:22.307Z,97.89
2022-11-08T02:05:34.031Z,97.89
2022-11-08T02:05:47.239Z,97.89
2022-11-08T02:06:00.442Z,97.89
2022-11-08T02:06:11.181Z,97.89
2022-11-08T02:06:22.007Z,97.89
2022-11-08T02:06:32.748Z,97.99
2022-11-08T02:06:44.487Z,97.99
2022-11-08T02:06:56.226Z,97.99
2022-11-08T02:07:06.980Z,98.10
2022-11-08T02:07:17.718Z,98.10
2022-11-08T02:07:28.526Z,98.10
2022-11-08T02:07:39.247Z,98.10
2022-11-08T02:07:49.986Z,97.99
2022-11-08T02:08:00.730Z,97.99
2022-11-08T02:08:11.456Z,97.99
2022-11-08T02:08:24.667Z,97.99
2022-11-08T02:08:38.379Z,97.89
2022-11-08T02:08:49.137Z,97.89
2022-11-08T02:08:59.897Z,97.89
2022-11-08T02:09:10.679Z,97.89
2022-11-08T02:09:23.155Z,97.78
2022-11-08T02:09:34.857Z,97.78
2022-11-08T02:09:47.276Z,97.78
2022-11-08T02:09:58.037Z,97.68
2022-11-08T02:10:10.987Z,97.68
2022-11-08T02:10:21.729Z,97.68
2022-11-08T02:10:32.494Z,97.68
2022-11-08T02:10:43.247Z,97.78
2022-11-08T02:10:54.024Z,97.78
2022-11-08T02:11:04.789Z,97.78
2022-11-08T02:11:15.537Z,97.78
2022-11-08T02:11:26.295Z,97.78
2022-11-08T02:11:38.040Z,97.78
2022-11-08T02:11:48.829Z,97.78
2022-11-08T02:12:01.327Z,97.78
2022-11-08T02:12:13.090Z,97.78
2022-11-08T02:12:23.898Z,97.78
2022-11-08T02:12:36.337Z,97.89
2022-11-08T02:12:47.108Z,97.89
2022-11-08T02:13:02.536Z,97.89
2022-11-08T02:13:15.927Z,97.78
2022-11-08T02:13:26.658Z,97.78
2022-11-08T02:13:39.892Z,97.78
2022-11-08T02:13:50.648Z,97.78
2022-11-08T02:14:01.438Z,97.78
2022-11-08T02:14:12.218Z,97.78
2022-11-08T02:14:22.948Z,97.68
2022-11-08T02:14:33.684Z,97.73
2022-11-08T02:14:44.416Z,97.73
2022-11-08T02:14:56.139Z,97.73
2022-11-08T02:15:08.378Z,97.73
2022-11-08T02:15:20.089Z,97.73
2022-11-08T02:15:30.900Z,97.63
2022-11-08T02:15:42.630Z,97.63
2022-11-08T02:15:53.433Z,97.63
2022-11-08T02:16:05.669Z,97.52
2022-11-08T02:16:16.411Z,97.52
2022-11-08T02:16:27.237Z,97.52
2022-11-08T02:16:37.980Z,97.52
2022-11-08T02:16:48.712Z,97.52
2022-11-08T02:17:00.451Z,97.52
2022-11-08T02:17:13.459Z,97.52
2022-11-08T02:17:26.680Z,97.52
2022-11-08T02:17:37.502Z,97.52
2022-11-08T02:17:48.282Z,97.52
2022-11-08T02:17:59.029Z,97.52
2022-11-08T02:18:10.763Z,97.52
2022-11-08T02:18:21.763Z,97.52
2022-11-08T02:18:33.659Z,97.52
2022-11-08T02:18:44.439Z,97.63
2022-11-08T02:18:55.168Z,97.63
2022-11-08T02:19:05.940Z,97.63
2022-11-08T02:19:16.723Z,97.63
2022-11-08T02:19:27.534Z,97.63
2022-11-08T02:19:38.270Z,97.63
2022-11-08T02:19:48.999Z,97.63
2022-11-08T02:19:59.741Z,97.63
2022-11-08T02:20:12.150Z,97.63
2022-11-08T02:20:23.850Z,97.52
2022-11-08T02:20:35.540Z,97.52
2022-11-08T02:20:46.276Z,97.52
2022-11-08T02:20:57.050Z,97.52
2022-11-08T02:21:09.520Z,97.52
2022-11-08T02:21:20.270Z,97.56
2022-11-08T02:21:31.079Z,97.56
2022-11-08T02:21:41.833Z,97.56
2022-11-08T02:21:53.631Z,97.47
2022-11-08T02:22:05.351Z,97.56
2022-11-08T02:22:16.111Z,97.47
2022-11-08T02:22:28.592Z,97.47
2022-11-08T02:22:39.339Z,97.47
2022-11-08T02:22:50.078Z,97.47
2022-11-08T02:23:00.849Z,97.47
2022-11-08T02:23:11.650Z,97.47
2022-11-08T02:23:22.431Z,97.36
2022-11-08T02:23:34.930Z,97.47
2022-11-08T02:23:45.733Z,97.47
2022-11-08T02:23:57.453Z,97.56
2022-11-08T02:24:08.209Z,97.56
2022-11-08T02:24:18.945Z,97.56
2022-11-08T02:24:29.700Z,97.56
2022-11-08T02:24:41.404Z,97.56
2022-11-08T02:24:52.141Z,97.56
2022-11-08T02:25:03.844Z,97.56
2022-11-08T02:25:16.083Z,97.56
2022-11-08T02:25:26.860Z,97.67
2022-11-08T02:25:40.084Z,97.67